createdAt,value
2019-03-23T00:00:41.246Z,1013.93
2019-03-23T00:01:41.261Z,1013.90
2019-03-23T00:02:41.231Z,1013.92
2019-03-23T00:03:41.228Z,1013.91
2019-03-23T00:04:41.236Z,1013.90
2019-03-23T00:05:41.189Z,1013.90
2019-03-23T00:06:41.180Z,1013.94
2019-03-23T00:07:41.174Z,1013.88
2019-03-23T00:08:41.163Z,1013.83
2019-03-23T00:09:41.234Z,1013.87
2019-03-23T00:10:41.136Z,1013.80
2019-03-23T00:11:41.140Z,1013.78
2019-03-23T00:12:41.113Z,1013.79
2019-03-23T00:13:41.115Z,1013.78
2019-03-23T00:14:41.092Z,1013.78
2019-03-23T00:15:41.140Z,1013.80
2019-03-23T00:16:41.070Z,1013.76
2019-03-23T00:17:41.060Z,1013.74
2019-03-23T00:18:41.093Z,1013.72
2019-03-23T00:19:41.048Z,1013.73
2019-03-23T00:20:41.078Z,1013.72
2019-03-23T00:21:41.060Z,1013.73
2019-03-23T00:22:41.013Z,1013.71
2019-03-23T00:23:41.039Z,1013.67
2019-03-23T00:24:41.046Z,1013.74
2019-03-23T00:25:40.994Z,1013.71
2019-03-23T00:26:40.994Z,1013.74
2019-03-23T00:27:40.966Z,1013.68
2019-03-23T00:28:40.955Z,1013.68
2019-03-23T00:29:40.942Z,1013.64
2019-03-23T00:30:40.959Z,1013.63
2019-03-23T00:31:40.950Z,1013.68
2019-03-23T00:32:40.902Z,1013.65
2019-03-23T00:33:40.897Z,1013.65
2019-03-23T00:34:40.881Z,1013.64
2019-03-23T00:35:40.908Z,1013.65
2019-03-23T00:36:41.899Z,1013.67
2019-03-23T00:37:40.860Z,1013.65
2019-03-23T00:38:40.844Z,1013.69
2019-03-23T00:39:40.901Z,1013.65
2019-03-23T00:40:40.817Z,1013.62
2019-03-23T00:41:40.855Z,1013.61
2019-03-23T00:42:40.796Z,1013.62
2019-03-23T00:43:40.792Z,1013.59
2019-03-23T00:44:40.773Z,1013.61
2019-03-23T00:45:40.794Z,1013.56
2019-03-23T00:46:40.761Z,1013.60
2019-03-23T00:47:40.769Z,1013.58
2019-03-23T00:48:40.734Z,1013.63
2019-03-23T00:49:40.737Z,1013.58
2019-03-23T00:50:40.711Z,1013.56
2019-03-23T00:51:40.722Z,1013.55
2019-03-23T00:52:40.772Z,1013.55
2019-03-23T00:53:40.688Z,1013.56
2019-03-23T00:54:40.680Z,1013.50
2019-03-23T00:55:40.656Z,1013.54
2019-03-23T00:56:40.652Z,1013.48
2019-03-23T00:57:40.678Z,1013.51
2019-03-23T00:58:40.654Z,1013.52
2019-03-23T00:59:40.607Z,1013.54
2019-03-23T01:00:40.599Z,1013.58
2019-03-23T01:01:40.606Z,1013.54
2019-03-23T01:02:41.842Z,1013.58
2019-03-23T01:03:40.618Z,1013.57
2019-03-23T01:04:40.557Z,1013.60
2019-03-23T01:05:40.556Z,1013.56
2019-03-23T01:06:40.581Z,1013.56
2019-03-23T01:07:40.541Z,1013.56
2019-03-23T01:08:40.541Z,1013.52
2019-03-23T01:09:40.537Z,1013.56
2019-03-23T01:10:40.491Z,1013.53
2019-03-23T01:11:40.491Z,1013.60
2019-03-23T01:12:40.474Z,1013.50
2019-03-23T01:13:40.464Z,1013.49
2019-03-23T01:14:40.497Z,1013.46
2019-03-23T01:15:40.443Z,1013.48
2019-03-23T01:16:40.432Z,1013.51
2019-03-23T01:17:40.420Z,1013.45
2019-03-23T01:18:40.409Z,1013.46
2019-03-23T01:19:40.435Z,1013.49
2019-03-23T01:20:49.286Z,1013.49
2019-03-23T01:21:41.369Z,1013.44
2019-03-23T01:22:40.361Z,1013.50
2019-03-23T01:23:40.363Z,1013.42
2019-03-23T01:24:40.390Z,1013.45
2019-03-23T01:25:40.819Z,1013.43
2019-03-23T01:26:40.319Z,1013.42
2019-03-23T01:27:40.323Z,1013.37
2019-03-23T01:28:40.307Z,1013.39
2019-03-23T01:29:40.297Z,1013.37
2019-03-23T01:30:40.275Z,1013.36
2019-03-23T01:31:40.325Z,1013.37
2019-03-23T01:32:40.781Z,1013.36
2019-03-23T01:33:40.241Z,1013.39
2019-03-23T01:34:40.233Z,1013.37
2019-03-23T01:35:40.245Z,1013.38
2019-03-23T01:36:40.243Z,1013.38
2019-03-23T01:37:40.203Z,1013.39
2019-03-23T01:38:40.259Z,1013.41
2019-03-23T01:39:40.175Z,1013.35
2019-03-23T01:40:40.210Z,1013.35
2019-03-23T01:41:40.167Z,1013.34
2019-03-23T01:42:40.161Z,1013.36
2019-03-23T01:43:40.129Z,1013.36
2019-03-23T01:44:40.138Z,1013.32
2019-03-23T01:45:40.195Z,1013.34
2019-03-23T01:46:40.096Z,1013.34
2019-03-23T01:47:40.136Z,1013.41
2019-03-23T01:48:40.075Z,1013.34
2019-03-23T01:49:40.065Z,1013.28
2019-03-23T01:50:40.053Z,1013.32
2019-03-23T01:51:40.041Z,1013.32
2019-03-23T01:52:40.038Z,1013.37
2019-03-23T01:53:40.177Z,1013.34
2019-03-23T01:54:40.007Z,1013.28
2019-03-23T01:55:40.000Z,1013.29
2019-03-23T01:56:39.994Z,1013.33
2019-03-23T01:57:39.973Z,1013.32
2019-03-23T01:58:40.032Z,1013.32
2019-03-23T01:59:39.971Z,1013.35
2019-03-23T02:00:40.002Z,1013.31
2019-03-23T02:01:39.931Z,1013.24
2019-03-23T02:02:39.950Z,1013.24
2019-03-23T02:03:39.935Z,1013.26
2019-03-23T02:04:39.921Z,1013.24
2019-03-23T02:05:39.888Z,1013.25
2019-03-23T02:06:39.884Z,1013.23
2019-03-23T02:07:39.867Z,1013.22
2019-03-23T02:08:39.855Z,1013.21
2019-03-23T02:09:39.862Z,1013.21
2019-03-23T02:10:41.862Z,1013.18
2019-03-23T02:11:39.822Z,1013.17
2019-03-23T02:12:39.810Z,1013.15
2019-03-23T02:13:39.836Z,1013.07
2019-03-23T02:14:39.855Z,1013.09
2019-03-23T02:15:39.783Z,1013.16
2019-03-23T02:16:39.776Z,1013.11
2019-03-23T02:17:39.753Z,1013.11
2019-03-23T02:18:39.775Z,1013.15
2019-03-23T02:19:39.746Z,1013.10
2019-03-23T02:20:39.750Z,1013.11
2019-03-23T02:21:39.714Z,1013.16
2019-03-23T02:22:39.697Z,1013.09
2019-03-23T02:23:39.694Z,1013.15
2019-03-23T02:24:39.690Z,1013.12
2019-03-23T02:25:39.785Z,1013.19
2019-03-23T02:26:39.719Z,1013.09
2019-03-23T02:27:39.653Z,1013.13
2019-03-23T02:28:39.646Z,1013.11
2019-03-23T02:29:39.621Z,1013.09
2019-03-23T02:30:39.644Z,1013.09
2019-03-23T02:31:39.627Z,1013.12
2019-03-23T02:32:39.653Z,1013.06
2019-03-23T02:33:39.582Z,1013.05
2019-03-23T02:34:39.571Z,1013.10
2019-03-23T02:35:39.568Z,1013.11
2019-03-23T02:36:39.586Z,1013.08
2019-03-23T02:37:39.543Z,1013.08
2019-03-23T02:38:39.583Z,1013.09
2019-03-23T02:39:39.526Z,1013.08
2019-03-23T02:40:39.532Z,1013.05
2019-03-23T02:41:39.518Z,1013.15
2019-03-23T02:42:39.516Z,1013.14
2019-03-23T02:43:39.471Z,1013.11
2019-03-23T02:44:39.478Z,1013.08
2019-03-23T02:45:39.472Z,1013.10
2019-03-23T02:46:39.442Z,1013.10
2019-03-23T02:47:39.474Z,1013.09
2019-03-23T02:48:39.417Z,1013.13
2019-03-23T02:49:39.409Z,1013.10
2019-03-23T02:50:39.409Z,1013.12
2019-03-23T02:51:39.845Z,1013.15
2019-03-23T02:52:39.420Z,1013.11
2019-03-23T02:53:39.378Z,1013.16
2019-03-23T02:54:39.359Z,1013.06
2019-03-23T02:55:39.410Z,1013.13
2019-03-23T02:56:39.336Z,1013.16
2019-03-23T02:57:39.364Z,1013.11
2019-03-23T02:58:39.349Z,1013.19
2019-03-23T02:59:39.296Z,1013.08
2019-03-23T03:00:39.287Z,1013.11
2019-03-23T03:01:39.294Z,1013.11
2019-03-23T03:02:39.274Z,1013.09
2019-03-23T03:03:39.276Z,1013.07
2019-03-23T03:04:39.260Z,1013.01
2019-03-23T03:05:39.234Z,1013.02
2019-03-23T03:06:39.240Z,1013.00
2019-03-23T03:07:42.294Z,1012.99
2019-03-23T03:08:39.205Z,1012.95
2019-03-23T03:09:39.236Z,1012.99
2019-03-23T03:10:39.176Z,1013.00
2019-03-23T03:11:39.176Z,1013.01
2019-03-23T03:12:39.209Z,1013.03
2019-03-23T03:13:39.144Z,1013.00
2019-03-23T03:14:39.129Z,1013.00
2019-03-23T03:15:39.145Z,1013.10
2019-03-23T03:16:39.115Z,1013.02
2019-03-23T03:17:39.108Z,1013.01
2019-03-23T03:18:39.104Z,1013.07
2019-03-23T03:19:39.083Z,1013.04
2019-03-23T03:20:39.132Z,1013.09
2019-03-23T03:21:39.058Z,1013.10
2019-03-23T03:22:39.044Z,1013.07
2019-03-23T03:23:39.082Z,1013.08
2019-03-23T03:24:39.023Z,1013.10
2019-03-23T03:25:39.018Z,1013.01
2019-03-23T03:26:39.022Z,1012.97
2019-03-23T03:27:38.987Z,1012.98
2019-03-23T03:28:38.978Z,1013.02
2019-03-23T03:29:38.973Z,1013.05
2019-03-23T03:30:38.993Z,1012.97
2019-03-23T03:31:39.002Z,1013.06
2019-03-23T03:32:38.931Z,1013.05
2019-03-23T03:33:38.925Z,1013.02
2019-03-23T03:34:38.919Z,1013.03
2019-03-23T03:35:38.911Z,1013.03
2019-03-23T03:36:38.926Z,1013.02
2019-03-23T03:37:38.903Z,1013.02
2019-03-23T03:38:38.871Z,1012.99
2019-03-23T03:39:38.854Z,1013.00
2019-03-23T03:40:38.850Z,1012.98
2019-03-23T03:41:38.842Z,1013.00
2019-03-23T03:42:38.881Z,1012.99
2019-03-23T03:43:38.813Z,1013.01
2019-03-23T03:44:38.814Z,1012.98
2019-03-23T03:45:38.800Z,1012.97
2019-03-23T03:46:38.793Z,1013.03
2019-03-23T03:47:41.188Z,1012.90
2019-03-23T03:48:38.756Z,1013.00
2019-03-23T03:49:38.746Z,1012.89
2019-03-23T03:50:38.740Z,1012.85
2019-03-23T03:51:38.742Z,1012.96
2019-03-23T03:52:38.743Z,1012.87
2019-03-23T03:53:38.731Z,1012.93
2019-03-23T03:54:38.723Z,1012.91
2019-03-23T03:55:38.683Z,1012.90
2019-03-23T03:56:38.673Z,1012.92
2019-03-23T03:57:38.686Z,1012.94
2019-03-23T03:58:38.692Z,1012.98
2019-03-23T03:59:38.639Z,1012.95
2019-03-23T04:00:38.643Z,1013.00
2019-03-23T04:01:38.618Z,1013.02
2019-03-23T04:02:38.606Z,1012.97
2019-03-23T04:03:38.599Z,1012.99
2019-03-23T04:04:38.603Z,1012.96
2019-03-23T04:05:38.617Z,1012.96
2019-03-23T04:06:39.189Z,1012.95
2019-03-23T04:07:38.573Z,1012.90
2019-03-23T04:08:38.545Z,1012.95
2019-03-23T04:09:40.418Z,1012.91
2019-03-23T04:10:38.532Z,1012.89
2019-03-23T04:11:38.516Z,1012.95
2019-03-23T04:12:38.497Z,1012.96
2019-03-23T04:13:38.489Z,1012.87
2019-03-23T04:14:38.516Z,1012.95
2019-03-23T04:15:38.491Z,1012.97
2019-03-23T04:16:38.457Z,1012.91
2019-03-23T04:17:38.454Z,1012.92
2019-03-23T04:18:38.434Z,1012.87
2019-03-23T04:19:38.426Z,1012.85
2019-03-23T04:20:38.453Z,1012.82
2019-03-23T04:21:38.416Z,1012.85
2019-03-23T04:22:38.398Z,1012.86
2019-03-23T04:23:38.393Z,1012.91
2019-03-23T04:24:38.378Z,1012.90
2019-03-23T04:25:38.379Z,1012.90
2019-03-23T04:26:39.427Z,1012.87
2019-03-23T04:27:38.340Z,1012.85
2019-03-23T04:28:38.344Z,1012.90
2019-03-23T04:29:38.315Z,1012.89
2019-03-23T04:30:38.309Z,1012.88
2019-03-23T04:31:38.373Z,1012.86
2019-03-23T04:32:38.293Z,1012.82
2019-03-23T04:33:38.274Z,1012.82
2019-03-23T04:34:38.304Z,1012.85
2019-03-23T04:35:38.281Z,1012.85
2019-03-23T04:36:38.277Z,1012.89
2019-03-23T04:37:38.254Z,1012.84
2019-03-23T04:38:38.225Z,1012.83
2019-03-23T04:39:38.212Z,1012.81
2019-03-23T04:40:38.198Z,1012.89
2019-03-23T04:41:38.202Z,1012.87
2019-03-23T04:42:38.219Z,1012.91
2019-03-23T04:43:38.163Z,1012.88
2019-03-23T04:44:38.148Z,1012.95
2019-03-23T04:45:38.141Z,1012.93
2019-03-23T04:46:38.146Z,1012.92
2019-03-23T04:47:38.130Z,1012.90
2019-03-23T04:48:38.131Z,1012.88
2019-03-23T04:49:38.101Z,1012.86
2019-03-23T04:50:38.085Z,1012.89
2019-03-23T04:51:38.070Z,1012.86
2019-03-23T04:52:38.067Z,1012.86
2019-03-23T04:53:38.091Z,1012.85
2019-03-23T04:54:39.006Z,1012.84
2019-03-23T04:55:38.092Z,1012.84
2019-03-23T04:56:38.024Z,1012.85
2019-03-23T04:57:38.011Z,1012.89
2019-03-23T04:58:38.023Z,1012.84
2019-03-23T04:59:38.011Z,1012.87
2019-03-23T05:00:37.977Z,1012.86
2019-03-23T05:01:37.978Z,1012.85
2019-03-23T05:02:37.963Z,1012.88
2019-03-23T05:03:37.946Z,1012.85
2019-03-23T05:04:37.985Z,1012.90
2019-03-23T05:05:37.926Z,1012.94
2019-03-23T05:06:37.915Z,1012.94
2019-03-23T05:07:37.897Z,1012.89
2019-03-23T05:08:37.898Z,1012.87
2019-03-23T05:09:37.897Z,1012.91
2019-03-23T05:10:37.864Z,1012.92
2019-03-23T05:11:37.866Z,1012.94
2019-03-23T05:12:37.844Z,1012.92
2019-03-23T05:13:37.836Z,1012.93
2019-03-23T05:14:37.862Z,1012.95
2019-03-23T05:15:37.809Z,1012.96
2019-03-23T05:16:37.805Z,1012.96
2019-03-23T05:17:37.794Z,1012.98
2019-03-23T05:18:37.797Z,1012.96
2019-03-23T05:19:37.772Z,1012.95
2019-03-23T05:20:37.784Z,1012.99
2019-03-23T05:21:37.744Z,1012.97
2019-03-23T05:22:37.736Z,1013.00
2019-03-23T05:23:37.733Z,1012.99
2019-03-23T05:24:37.719Z,1013.05
2019-03-23T05:25:37.747Z,1013.01
2019-03-23T05:26:37.697Z,1013.04
2019-03-23T05:27:37.683Z,1013.05
2019-03-23T05:28:37.678Z,1013.05
2019-03-23T05:29:37.672Z,1013.06
2019-03-23T05:30:37.649Z,1013.05
2019-03-23T05:31:37.677Z,1013.13
2019-03-23T05:32:37.633Z,1013.05
2019-03-23T05:33:37.631Z,1013.11
2019-03-23T05:34:37.610Z,1013.15
2019-03-23T05:35:37.662Z,1013.13
2019-03-23T05:36:37.641Z,1013.12
2019-03-23T05:37:37.569Z,1013.08
2019-03-23T05:38:44.333Z,1013.15
2019-03-23T05:39:38.546Z,1013.05
2019-03-23T05:40:37.534Z,1013.08
2019-03-23T05:41:37.556Z,1013.04
2019-03-23T05:42:37.522Z,1013.13
2019-03-23T05:43:37.502Z,1013.12
2019-03-23T05:44:37.490Z,1013.04
2019-03-23T05:45:37.473Z,1013.07
2019-03-23T05:46:37.482Z,1013.05
2019-03-23T05:47:37.479Z,1013.00
2019-03-23T05:48:37.443Z,1013.10
2019-03-23T05:49:37.430Z,1013.03
2019-03-23T05:50:37.425Z,1013.01
2019-03-23T05:51:37.412Z,1012.99
2019-03-23T05:52:37.435Z,1013.06
2019-03-23T05:53:37.397Z,1013.02
2019-03-23T05:54:37.398Z,1013.01
2019-03-23T05:55:37.373Z,1013.01
2019-03-23T05:56:37.365Z,1013.08
2019-03-23T05:57:37.370Z,1013.04
2019-03-23T05:58:37.354Z,1013.04
2019-03-23T05:59:37.332Z,1013.12
2019-03-23T06:00:37.319Z,1013.10
2019-03-23T06:01:37.319Z,1013.13
2019-03-23T06:02:37.294Z,1013.15
2019-03-23T06:03:37.308Z,1013.16
2019-03-23T06:04:37.278Z,1013.20
2019-03-23T06:05:37.257Z,1013.17
2019-03-23T06:06:37.249Z,1013.12
2019-03-23T06:07:37.249Z,1013.16
2019-03-23T06:08:37.245Z,1013.13
2019-03-23T06:09:37.250Z,1013.09
2019-03-23T06:10:37.204Z,1013.15
2019-03-23T06:11:37.196Z,1013.16
2019-03-23T06:12:37.192Z,1013.06
2019-03-23T06:13:37.194Z,1013.05
2019-03-23T06:14:37.195Z,1013.11
2019-03-23T06:15:37.167Z,1013.01
2019-03-23T06:16:37.146Z,1013.08
2019-03-23T06:17:37.131Z,1013.13
2019-03-23T06:18:37.120Z,1013.10
2019-03-23T06:19:37.116Z,1013.07
2019-03-23T06:20:37.119Z,1013.10
2019-03-23T06:21:37.085Z,1013.06
2019-03-23T06:22:37.076Z,1013.12
2019-03-23T06:23:37.064Z,1013.07
2019-03-23T06:24:37.051Z,1013.09
2019-03-23T06:25:37.072Z,1013.16
2019-03-23T06:26:37.047Z,1013.15
2019-03-23T06:27:37.025Z,1013.12
2019-03-23T06:28:37.014Z,1013.11
2019-03-23T06:29:36.998Z,1013.09
2019-03-23T06:30:36.994Z,1013.15
2019-03-23T06:31:36.994Z,1013.11
2019-03-23T06:32:36.968Z,1013.14
2019-03-23T06:33:36.991Z,1013.12
2019-03-23T06:34:36.946Z,1013.14
2019-03-23T06:35:36.931Z,1013.17
2019-03-23T06:36:36.950Z,1013.10
2019-03-23T06:37:36.913Z,1013.12
2019-03-23T06:38:36.899Z,1013.11
2019-03-23T06:39:36.899Z,1013.14
2019-03-23T06:40:36.893Z,1013.13
2019-03-23T06:41:36.870Z,1013.16
2019-03-23T06:42:36.886Z,1013.08
2019-03-23T06:43:36.850Z,1013.12
2019-03-23T06:44:36.835Z,1013.07
2019-03-23T06:45:36.821Z,1013.13
2019-03-23T06:46:36.814Z,1013.07
2019-03-23T06:47:36.857Z,1013.08
2019-03-23T06:48:36.787Z,1013.08
2019-03-23T06:49:36.789Z,1013.09
2019-03-23T06:50:36.771Z,1013.12
2019-03-23T06:51:36.760Z,1013.14
2019-03-23T06:52:36.778Z,1013.15
2019-03-23T06:53:36.761Z,1013.13
2019-03-23T06:54:36.728Z,1013.11
2019-03-23T06:55:36.717Z,1013.09
2019-03-23T06:56:36.712Z,1013.13
2019-03-23T06:57:36.737Z,1013.11
2019-03-23T06:58:38.601Z,1013.20
2019-03-23T06:59:36.669Z,1013.13
2019-03-23T07:00:36.671Z,1013.16
2019-03-23T07:01:36.648Z,1013.16
2019-03-23T07:02:36.643Z,1013.18
2019-03-23T07:03:36.645Z,1013.14
2019-03-23T07:04:36.612Z,1013.19
2019-03-23T07:05:36.634Z,1013.16
2019-03-23T07:06:36.598Z,1013.16
2019-03-23T07:07:36.581Z,1013.21
2019-03-23T07:08:36.601Z,1013.17
2019-03-23T07:09:36.585Z,1013.16
2019-03-23T07:10:36.550Z,1013.14
2019-03-23T07:11:36.537Z,1013.11
2019-03-23T07:12:36.543Z,1013.18
2019-03-23T07:13:36.516Z,1013.18
2019-03-23T07:14:36.532Z,1013.12
2019-03-23T07:15:36.509Z,1013.16
2019-03-23T07:16:36.508Z,1013.17
2019-03-23T07:17:36.506Z,1013.21
2019-03-23T07:18:36.476Z,1013.20
2019-03-23T07:19:36.457Z,1013.15
2019-03-23T07:20:36.461Z,1013.18
2019-03-23T07:21:36.429Z,1013.17
2019-03-23T07:22:36.437Z,1013.22
2019-03-23T07:23:36.430Z,1013.17
2019-03-23T07:24:36.412Z,1013.15
2019-03-23T07:25:36.387Z,1013.14
2019-03-23T07:26:36.374Z,1013.09
2019-03-23T07:27:36.605Z,1013.09
2019-03-23T07:28:36.356Z,1013.13
2019-03-23T07:29:36.352Z,1013.11
2019-03-23T07:30:36.328Z,1013.13
2019-03-23T07:31:36.319Z,1013.08
2019-03-23T07:32:36.312Z,1013.07
2019-03-23T07:33:36.315Z,1013.04
2019-03-23T07:34:36.284Z,1013.05
2019-03-23T07:35:36.284Z,1012.98
2019-03-23T07:36:36.263Z,1013.01
2019-03-23T07:37:36.260Z,1012.99
2019-03-23T07:38:36.277Z,1013.01
2019-03-23T07:39:36.250Z,1013.01
2019-03-23T07:40:36.220Z,1013.04
2019-03-23T07:41:36.214Z,1013.00
2019-03-23T07:42:36.197Z,1013.01
2019-03-23T07:43:36.201Z,1013.06
2019-03-23T07:44:36.208Z,1013.08
2019-03-23T07:45:36.171Z,1013.10
2019-03-23T07:46:36.159Z,1013.09
2019-03-23T07:47:36.146Z,1013.06
2019-03-23T07:48:36.131Z,1013.06
2019-03-23T07:49:36.220Z,1013.09
2019-03-23T07:50:36.130Z,1013.10
2019-03-23T07:51:36.106Z,1013.07
2019-03-23T07:52:36.093Z,1013.06
2019-03-23T07:53:36.078Z,1013.14
2019-03-23T07:54:36.069Z,1013.11
2019-03-23T07:55:36.104Z,1013.12
2019-03-23T07:56:36.049Z,1013.04
2019-03-23T07:57:36.033Z,1013.05
2019-03-23T07:58:36.028Z,1013.11
2019-03-23T07:59:36.010Z,1013.19
2019-03-23T08:00:36.047Z,1013.11
2019-03-23T08:01:35.993Z,1013.12
2019-03-23T08:02:35.981Z,1013.13
2019-03-23T08:03:35.971Z,1013.14
2019-03-23T08:04:35.960Z,1013.15
2019-03-23T08:05:35.948Z,1013.09
2019-03-23T08:06:35.978Z,1013.13
2019-03-23T08:07:35.924Z,1013.10
2019-03-23T08:08:35.934Z,1013.18
2019-03-23T08:09:37.947Z,1013.16
2019-03-23T08:10:35.892Z,1013.20
2019-03-23T08:11:35.883Z,1013.22
2019-03-23T08:12:35.881Z,1013.22
2019-03-23T08:13:35.892Z,1013.20
2019-03-23T08:14:36.248Z,1013.20
2019-03-23T08:15:35.893Z,1013.21
2019-03-23T08:16:35.836Z,1013.21
2019-03-23T08:17:35.824Z,1013.22
2019-03-23T08:18:35.809Z,1013.29
2019-03-23T08:19:35.812Z,1013.21
2019-03-23T08:20:35.791Z,1013.25
2019-03-23T08:21:35.814Z,1013.28
2019-03-23T08:22:35.767Z,1013.30
2019-03-23T08:23:35.761Z,1013.23
2019-03-23T08:24:35.779Z,1013.29
2019-03-23T08:25:35.740Z,1013.26
2019-03-23T08:26:35.725Z,1013.17
2019-03-23T08:27:35.715Z,1013.21
2019-03-23T08:28:35.697Z,1013.15
2019-03-23T08:29:35.689Z,1013.19
2019-03-23T08:30:35.692Z,1013.16
2019-03-23T08:31:35.675Z,1013.14
2019-03-23T08:32:35.658Z,1013.19
2019-03-23T08:33:35.646Z,1013.19
2019-03-23T08:34:35.653Z,1013.15
2019-03-23T08:35:35.658Z,1013.15
2019-03-23T08:36:35.622Z,1013.13
2019-03-23T08:37:35.603Z,1013.17
2019-03-23T08:38:35.586Z,1013.14
2019-03-23T08:39:35.609Z,1013.15
2019-03-23T08:40:35.912Z,1013.16
2019-03-23T08:41:35.575Z,1013.16
2019-03-23T08:42:35.554Z,1013.11
2019-03-23T08:43:35.558Z,1013.18
2019-03-23T08:44:35.542Z,1013.20
2019-03-23T08:45:35.511Z,1013.10
2019-03-23T08:46:35.524Z,1013.09
2019-03-23T08:47:35.503Z,1013.15
2019-03-23T08:48:35.481Z,1013.11
2019-03-23T08:49:35.493Z,1013.10
2019-03-23T08:50:35.458Z,1013.08
2019-03-23T08:51:35.449Z,1013.11
2019-03-23T08:52:35.443Z,1013.09
2019-03-23T08:53:35.422Z,1013.10
2019-03-23T08:54:35.452Z,1013.11
2019-03-23T08:55:35.413Z,1013.12
2019-03-23T08:56:37.365Z,1013.06
2019-03-23T08:57:35.381Z,1013.16
2019-03-23T08:58:35.373Z,1013.13
2019-03-23T08:59:35.391Z,1013.15
2019-03-23T09:00:35.386Z,1013.12
2019-03-23T09:01:35.338Z,1013.09
2019-03-23T09:02:35.344Z,1013.13
2019-03-23T09:03:35.353Z,1013.08
2019-03-23T09:04:35.345Z,1013.12
2019-03-23T09:05:35.314Z,1013.13
2019-03-23T09:06:35.284Z,1013.07
2019-03-23T09:07:35.290Z,1013.09
2019-03-23T09:08:35.304Z,1013.09
2019-03-23T09:09:35.559Z,1013.05
2019-03-23T09:10:35.241Z,1013.10
2019-03-23T09:11:35.232Z,1013.06
2019-03-23T09:12:35.231Z,1013.08
2019-03-23T09:13:40.541Z,1013.04
2019-03-23T09:14:36.238Z,1013.04
2019-03-23T09:15:35.219Z,1013.06
2019-03-23T09:16:35.234Z,1013.05
2019-03-23T09:17:35.193Z,1013.11
2019-03-23T09:18:35.150Z,1013.10
2019-03-23T09:19:35.169Z,1013.07
2019-03-23T09:20:35.181Z,1013.15
2019-03-23T09:21:35.145Z,1013.11
2019-03-23T09:22:35.104Z,1013.12
2019-03-23T09:23:35.126Z,1013.12
2019-03-23T09:24:35.110Z,1013.20
2019-03-23T09:25:35.103Z,1013.17
2019-03-23T09:26:35.112Z,1013.24
2019-03-23T09:27:35.071Z,1013.23
2019-03-23T09:28:35.042Z,1013.21
2019-03-23T09:29:35.032Z,1013.20
2019-03-23T09:30:35.037Z,1013.22
2019-03-23T09:31:35.019Z,1013.18
2019-03-23T09:32:35.012Z,1013.22
2019-03-23T09:33:35.018Z,1013.21
2019-03-23T09:34:34.983Z,1013.26
2019-03-23T09:35:34.990Z,1013.22
2019-03-23T09:36:34.967Z,1013.23
2019-03-23T09:37:38.106Z,1013.25
2019-03-23T09:38:34.953Z,1013.31
2019-03-23T09:39:34.922Z,1013.34
2019-03-23T09:40:34.916Z,1013.34
2019-03-23T09:41:34.951Z,1013.29
2019-03-23T09:42:34.897Z,1013.35
2019-03-23T09:43:34.879Z,1013.34
2019-03-23T09:44:34.885Z,1013.36
2019-03-23T09:45:34.889Z,1013.36
2019-03-23T09:46:34.893Z,1013.40
2019-03-23T09:47:34.831Z,1013.36
2019-03-23T09:48:34.829Z,1013.48
2019-03-23T09:49:34.870Z,1013.40
2019-03-23T09:50:34.852Z,1013.40
2019-03-23T09:51:34.784Z,1013.39
2019-03-23T09:52:34.772Z,1013.39
2019-03-23T09:53:34.804Z,1013.44
2019-03-23T09:54:34.772Z,1013.35
2019-03-23T09:55:34.775Z,1013.40
2019-03-23T09:56:34.753Z,1013.44
2019-03-23T09:57:34.719Z,1013.38
2019-03-23T09:58:34.706Z,1013.42
2019-03-23T09:59:34.719Z,1013.34
2019-03-23T10:00:34.708Z,1013.40
2019-03-23T10:01:34.711Z,1013.39
2019-03-23T10:02:34.674Z,1013.42
2019-03-23T10:03:34.674Z,1013.39
2019-03-23T10:04:34.689Z,1013.37
2019-03-23T10:05:34.676Z,1013.28
2019-03-23T10:06:34.661Z,1013.36
2019-03-23T10:07:34.633Z,1013.30
2019-03-23T10:08:34.625Z,1013.30
2019-03-23T10:09:34.599Z,1013.31
2019-03-23T10:10:34.587Z,1013.35
2019-03-23T10:11:34.610Z,1013.28
2019-03-23T10:12:34.583Z,1013.32
2019-03-23T10:13:34.546Z,1013.38
2019-03-23T10:14:34.538Z,1013.33
2019-03-23T10:15:34.531Z,1013.32
2019-03-23T10:16:34.547Z,1013.27
2019-03-23T10:17:34.525Z,1013.31
2019-03-23T10:18:34.507Z,1013.31
2019-03-23T10:19:34.488Z,1013.31
2019-03-23T10:20:34.467Z,1013.35
2019-03-23T10:21:34.508Z,1013.27
2019-03-23T10:22:34.451Z,1013.28
2019-03-23T10:23:34.438Z,1013.26
2019-03-23T10:24:34.422Z,1013.23
2019-03-23T10:25:34.423Z,1013.25
2019-03-23T10:26:34.423Z,1013.27
2019-03-23T10:27:34.410Z,1013.35
2019-03-23T10:28:34.386Z,1013.26
2019-03-23T10:29:34.377Z,1013.20
2019-03-23T10:30:34.357Z,1013.24
2019-03-23T10:31:34.361Z,1013.24
2019-03-23T10:32:34.367Z,1013.21
2019-03-23T10:33:34.323Z,1013.18
2019-03-23T10:34:34.337Z,1013.24
2019-03-23T10:35:34.315Z,1013.26
2019-03-23T10:36:34.300Z,1013.25
2019-03-23T10:37:34.304Z,1013.27
2019-03-23T10:38:34.294Z,1013.22
2019-03-23T10:39:34.262Z,1013.20
2019-03-23T10:40:34.280Z,1013.22
2019-03-23T10:41:34.247Z,1013.22
2019-03-23T10:42:34.226Z,1013.17
2019-03-23T10:43:34.219Z,1013.23
2019-03-23T10:44:34.203Z,1013.19
2019-03-23T10:45:43.781Z,1013.17
2019-03-23T10:46:35.180Z,1013.18
2019-03-23T10:47:34.203Z,1013.18
2019-03-23T10:48:34.174Z,1013.17
2019-03-23T10:49:34.157Z,1013.21
2019-03-23T10:50:34.160Z,1013.19
2019-03-23T10:51:34.125Z,1013.15
2019-03-23T10:52:34.155Z,1013.14
2019-03-23T10:53:34.125Z,1013.12
2019-03-23T10:54:34.103Z,1013.16
2019-03-23T10:55:34.135Z,1013.13
2019-03-23T10:56:34.075Z,1013.16
2019-03-23T10:57:34.083Z,1013.14
2019-03-23T10:58:34.047Z,1013.11
2019-03-23T10:59:34.044Z,1013.13
2019-03-23T11:00:34.030Z,1013.16
2019-03-23T11:01:34.082Z,1013.11
2019-03-23T11:02:34.014Z,1013.11
2019-03-23T11:03:33.993Z,1013.08
2019-03-23T11:04:33.993Z,1013.07
2019-03-23T11:05:33.980Z,1013.08
2019-03-23T11:06:33.995Z,1013.06
2019-03-23T11:07:33.988Z,1013.08
2019-03-23T11:08:33.946Z,1013.08
2019-03-23T11:09:33.935Z,1013.10
2019-03-23T11:10:41.585Z,1013.11
2019-03-23T11:11:34.930Z,1013.13
2019-03-23T11:12:33.895Z,1013.15
2019-03-23T11:13:33.927Z,1013.09
2019-03-23T11:14:33.919Z,1013.04
2019-03-23T11:15:33.914Z,1013.08
2019-03-23T11:16:33.895Z,1013.13
2019-03-23T11:17:33.846Z,1013.07
2019-03-23T11:18:33.854Z,1013.06
2019-03-23T11:19:33.829Z,1013.09
2019-03-23T11:20:33.810Z,1013.07
2019-03-23T11:21:33.808Z,1013.05
2019-03-23T11:22:33.872Z,1013.05
2019-03-23T11:23:33.815Z,1013.08
2019-03-23T11:24:33.770Z,1013.06
2019-03-23T11:25:33.751Z,1013.11
2019-03-23T11:26:33.740Z,1013.09
2019-03-23T11:27:33.771Z,1013.06
2019-03-23T11:28:33.755Z,1013.05
2019-03-23T11:29:33.708Z,1013.08
2019-03-23T11:30:33.701Z,1013.00
2019-03-23T11:31:33.704Z,1013.05
2019-03-23T11:32:33.687Z,1013.06
2019-03-23T11:33:33.704Z,1013.03
2019-03-23T11:34:33.671Z,1013.00
2019-03-23T11:35:33.644Z,1013.02
2019-03-23T11:36:33.636Z,1012.98
2019-03-23T11:37:33.668Z,1013.05
2019-03-23T11:38:33.678Z,1012.99
2019-03-23T11:39:33.600Z,1013.05
2019-03-23T11:40:33.611Z,1012.97
2019-03-23T11:41:33.578Z,1013.02
2019-03-23T11:42:33.589Z,1013.02
2019-03-23T11:43:33.595Z,1013.00
2019-03-23T11:44:33.563Z,1013.02
2019-03-23T11:45:33.539Z,1013.01
2019-03-23T11:46:33.555Z,1012.99
2019-03-23T11:47:33.514Z,1012.97
2019-03-23T11:48:33.501Z,1012.99
2019-03-23T11:49:33.520Z,1013.00
2019-03-23T11:50:33.492Z,1012.97
2019-03-23T11:51:33.578Z,1012.99
2019-03-23T11:52:33.476Z,1012.96
2019-03-23T11:53:33.482Z,1013.01
2019-03-23T11:54:33.434Z,1012.97
2019-03-23T11:55:33.437Z,1013.01
2019-03-23T11:56:33.436Z,1012.97
2019-03-23T11:57:33.401Z,1012.99
2019-03-23T11:58:33.419Z,1012.98
2019-03-23T11:59:33.405Z,1012.98
2019-03-23T12:00:33.377Z,1012.93
2019-03-23T12:01:33.403Z,1012.92
2019-03-23T12:02:33.363Z,1012.86
2019-03-23T12:03:33.337Z,1012.93
2019-03-23T12:04:33.355Z,1012.91
2019-03-23T12:05:33.320Z,1012.95